createdAt,value
2023-04-17T00:00:06.267Z,45.64
2023-04-17T00:02:40.318Z,45.40
2023-04-17T00:05:10.429Z,45.57
2023-04-17T00:07:39.359Z,45.27
2023-04-17T00:10:09.952Z,45.34
2023-04-17T00:12:38.696Z,45.67
2023-04-17T00:15:09.986Z,45.49
2023-04-17T00:17:38.461Z,45.61
2023-04-17T00:20:10.156Z,45.75
2023-04-17T00:22:38.549Z,45.52
2023-04-17T00:25:10.463Z,45.57
2023-04-17T00:27:38.882Z,45.50
2023-04-17T00:30:10.648Z,45.55
2023-04-17T00:32:39.051Z,45.51
2023-04-17T00:35:08.695Z,45.56
2023-04-17T00:37:37.035Z,45.46
2023-04-17T00:40:06.274Z,45.49
2023-04-17T00:42:34.681Z,45.20
2023-04-17T00:45:04.434Z,45.28
2023-04-17T00:47:34.341Z,45.42
2023-04-17T00:50:02.910Z,45.34
2023-04-17T00:52:31.350Z,45.37
2023-04-17T00:55:00.007Z,45.18
2023-04-17T00:57:28.495Z,45.46
2023-04-17T00:59:57.644Z,45.35
2023-04-17T01:02:26.275Z,45.29
2023-04-17T01:04:56.038Z,45.26
2023-04-17T01:07:24.841Z,45.08
2023-04-17T01:09:53.182Z,45.27
2023-04-17T01:12:22.627Z,45.09
2023-04-17T01:14:51.737Z,45.26
2023-04-17T01:17:20.604Z,45.31
2023-04-17T01:19:49.195Z,44.96
2023-04-17T01:22:20.039Z,45.23
2023-04-17T01:24:49.872Z,45.07
2023-04-17T01:27:18.198Z,45.33
2023-04-17T01:29:48.002Z,45.08
2023-04-17T01:32:16.379Z,45.06
2023-04-17T01:34:44.737Z,44.92
2023-04-17T01:37:13.407Z,45.12
2023-04-17T01:39:42.070Z,45.11
2023-04-17T01:42:11.748Z,45.12
2023-04-17T01:44:40.157Z,44.91
2023-04-17T01:47:08.575Z,44.94
2023-04-17T01:49:36.987Z,44.92
2023-04-17T01:52:05.624Z,44.85
2023-04-17T01:54:34.052Z,45.05
2023-04-17T01:57:02.588Z,44.84
2023-04-17T01:59:32.356Z,45.06
2023-04-17T02:02:00.901Z,45.06
2023-04-17T02:04:29.394Z,44.70
2023-04-17T02:06:57.876Z,44.77
2023-04-17T02:09:27.085Z,44.88
2023-04-17T02:11:56.936Z,44.73
2023-04-17T02:14:25.994Z,44.94
2023-04-17T02:16:55.895Z,44.91
2023-04-17T02:19:24.264Z,44.92
2023-04-17T02:21:52.681Z,44.76
2023-04-17T02:24:21.093Z,44.92
2023-04-17T02:26:50.905Z,44.71
2023-04-17T02:29:19.276Z,44.71
2023-04-17T02:31:47.714Z,44.88
2023-04-17T02:34:17.509Z,44.58
2023-04-17T02:36:45.930Z,44.78
2023-04-17T02:39:14.341Z,44.87
2023-04-17T02:41:42.796Z,44.80
2023-04-17T02:44:11.170Z,44.80
2023-04-17T02:46:40.102Z,44.82
2023-04-17T02:49:08.545Z,44.74
2023-04-17T02:51:38.276Z,44.77
2023-04-17T02:54:06.777Z,44.76
2023-04-17T02:56:35.186Z,44.51
2023-04-17T02:59:03.559Z,44.56
2023-04-17T03:01:34.130Z,44.92
2023-04-17T03:04:02.775Z,44.45
2023-04-17T03:06:31.300Z,44.82
2023-04-17T03:09:01.033Z,44.74
2023-04-17T03:11:29.371Z,44.50
2023-04-17T03:13:57.704Z,44.54
2023-04-17T03:16:26.190Z,44.42
2023-04-17T03:18:54.593Z,44.65
2023-04-17T03:21:22.977Z,44.42
2023-04-17T03:23:51.359Z,44.73
2023-04-17T03:26:21.662Z,44.44
2023-04-17T03:28:50.082Z,44.65
2023-04-17T03:31:18.405Z,44.26
2023-04-17T03:33:46.813Z,44.50
2023-04-17T03:36:15.676Z,44.40
2023-04-17T03:38:44.088Z,44.38
2023-04-17T03:41:12.499Z,44.40
2023-04-17T03:43:42.323Z,44.48
2023-04-17T03:46:10.755Z,44.23
2023-04-17T03:48:39.116Z,44.56
2023-04-17T03:51:07.618Z,44.27
2023-04-17T03:53:36.231Z,44.40
2023-04-17T03:56:04.895Z,44.56
2023-04-17T03:58:33.287Z,44.30
2023-04-17T04:01:03.020Z,44.53
2023-04-17T04:03:31.574Z,44.33
2023-04-17T04:06:00.145Z,44.52
2023-04-17T04:08:28.528Z,44.24
2023-04-17T04:10:56.979Z,44.28
2023-04-17T04:13:25.435Z,44.17
2023-04-17T04:15:53.821Z,44.24
2023-04-17T04:18:23.696Z,44.54
2023-04-17T04:20:52.153Z,44.48
2023-04-17T04:23:21.391Z,44.33
2023-04-17T04:25:50.601Z,44.48
2023-04-17T04:28:19.034Z,44.48
2023-04-17T04:30:50.650Z,44.50
2023-04-17T04:33:21.215Z,44.44
2023-04-17T04:35:51.900Z,44.43
2023-04-17T04:38:20.346Z,44.46
2023-04-17T04:40:50.140Z,44.13
2023-04-17T04:43:20.848Z,44.27
2023-04-17T04:45:50.596Z,44.25
2023-04-17T04:48:19.035Z,44.54
2023-04-17T04:50:47.456Z,43.99
2023-04-17T04:53:17.286Z,44.31
2023-04-17T04:55:45.914Z,44.48
2023-04-17T04:58:14.235Z,44.46
2023-04-17T05:00:43.706Z,44.47
2023-04-17T05:03:12.789Z,44.46
2023-04-17T05:05:41.988Z,44.31
2023-04-17T05:08:10.353Z,44.45
2023-04-17T05:10:40.123Z,44.81
2023-04-17T05:13:08.540Z,44.43
2023-04-17T05:15:37.210Z,43.69
2023-04-17T05:18:05.668Z,44.28
2023-04-17T05:20:34.115Z,43.59
2023-04-17T05:23:02.488Z,44.18
2023-04-17T05:25:30.936Z,44.27
2023-04-17T05:28:00.696Z,43.33
2023-04-17T05:30:29.034Z,42.84
2023-04-17T05:32:58.646Z,43.99
2023-04-17T05:35:27.318Z,43.70
2023-04-17T05:37:56.222Z,43.40
2023-04-17T05:40:24.612Z,42.70
2023-04-17T05:42:53.081Z,43.54
2023-04-17T05:45:25.374Z,42.72
2023-04-17T05:47:54.130Z,43.21
2023-04-17T05:50:22.593Z,43.76
2023-04-17T05:52:51.169Z,43.58
2023-04-17T05:55:20.169Z,43.88
2023-04-17T05:57:48.871Z,43.93
2023-04-17T06:00:18.928Z,44.12
2023-04-17T06:02:48.808Z,43.96
2023-04-17T06:05:17.507Z,43.92
2023-04-17T06:07:46.045Z,44.06
2023-04-17T06:10:14.472Z,43.79
2023-04-17T06:12:42.852Z,43.96
2023-04-17T06:15:12.687Z,43.97
2023-04-17T06:17:41.905Z,43.58
2023-04-17T06:20:12.805Z,44.02
2023-04-17T06:22:44.280Z,44.42
2023-04-17T06:25:12.900Z,44.32
2023-04-17T06:27:41.439Z,44.13
2023-04-17T06:30:11.208Z,44.17
2023-04-17T06:32:43.908Z,44.26
2023-04-17T06:35:13.679Z,43.98
2023-04-17T06:37:42.107Z,43.99
2023-04-17T06:40:12.784Z,44.19
2023-04-17T06:42:41.559Z,44.11
2023-04-17T06:45:11.122Z,44.20
2023-04-17T06:47:39.552Z,43.89
2023-04-17T06:50:10.141Z,44.04
2023-04-17T06:52:39.990Z,44.05
2023-04-17T06:55:10.584Z,44.05
2023-04-17T06:57:39.357Z,44.16
2023-04-17T07:00:09.963Z,44.15
2023-04-17T07:02:38.487Z,44.14
2023-04-17T07:05:08.256Z,43.83
2023-04-17T07:07:36.921Z,44.17
2023-04-17T07:10:08.479Z,43.98
2023-04-17T07:12:36.832Z,44.13
2023-04-17T07:15:05.966Z,44.10
2023-04-17T07:17:34.444Z,44.10
2023-04-17T07:20:02.871Z,43.79
2023-04-17T07:22:31.291Z,44.00
2023-04-17T07:24:59.653Z,44.05
2023-04-17T07:27:29.473Z,43.78
2023-04-17T07:29:57.949Z,43.70
2023-04-17T07:32:28.593Z,43.79
2023-04-17T07:34:57.138Z,44.06
2023-04-17T07:37:25.748Z,43.68
2023-04-17T07:39:54.885Z,43.72
2023-04-17T07:42:23.324Z,44.05
2023-04-17T07:44:53.033Z,43.98
2023-04-17T07:47:21.666Z,44.27
2023-04-17T07:49:50.450Z,44.23
2023-04-17T07:52:18.876Z,44.38
2023-04-17T07:54:47.250Z,44.24
2023-04-17T07:57:18.160Z,44.31
2023-04-17T07:59:47.269Z,44.19
2023-04-17T08:02:17.179Z,44.11
2023-04-17T08:04:46.941Z,44.02
2023-04-17T08:07:15.504Z,44.11
2023-04-17T08:09:44.319Z,43.78
2023-04-17T08:12:12.716Z,43.81
2023-04-17T08:14:41.148Z,44.05
2023-04-17T08:17:09.679Z,44.10
2023-04-17T08:19:39.591Z,43.84
2023-04-17T08:22:08.188Z,44.00
2023-04-17T08:24:36.873Z,44.13
2023-04-17T08:27:06.208Z,44.16
2023-04-17T08:29:34.631Z,44.03
2023-04-17T08:32:13.883Z,44.08
2023-04-17T08:34:46.004Z,44.16
2023-04-17T08:37:14.410Z,44.11
2023-04-17T08:40:18.289Z,44.20
2023-04-17T08:42:48.280Z,44.29
2023-04-17T08:45:17.523Z,44.21
2023-04-17T08:47:46.054Z,44.33
2023-04-17T08:50:17.859Z,44.35
2023-04-17T08:52:47.254Z,44.64
2023-04-17T08:55:16.970Z,44.54
2023-04-17T08:57:58.730Z,44.85
2023-04-17T09:00:31.254Z,45.08
2023-04-17T09:03:00.578Z,44.75
2023-04-17T09:05:33.519Z,44.98
2023-04-17T09:08:13.176Z,45.02
2023-04-17T09:10:43.019Z,44.74
2023-04-17T09:13:14.467Z,44.98
2023-04-17T09:15:43.294Z,44.48
2023-04-17T09:18:25.928Z,45.02
2023-04-17T09:20:57.688Z,44.99
2023-04-17T09:23:26.283Z,44.83
2023-04-17T09:26:10.948Z,44.88
2023-04-17T09:28:40.192Z,44.97
2023-04-17T09:31:25.678Z,45.02
2023-04-17T09:33:58.253Z,45.06
2023-04-17T09:36:30.755Z,44.97
2023-04-17T09:39:00.296Z,44.82
2023-04-17T09:41:30.092Z,45.16
2023-04-17T09:44:01.841Z,44.83
2023-04-17T09:46:35.450Z,45.06
2023-04-17T09:49:15.822Z,45.14
2023-04-17T09:51:45.899Z,45.19
2023-04-17T09:54:15.804Z,45.13
2023-04-17T09:56:44.588Z,45.29
2023-04-17T09:59:13.397Z,45.12
2023-04-17T10:01:42.503Z,45.08
2023-04-17T10:04:11.394Z,45.10
2023-04-17T10:06:40.217Z,44.96
2023-04-17T10:09:10.221Z,45.22
2023-04-17T10:11:40.255Z,45.26
2023-04-17T10:14:14.120Z,45.15
2023-04-17T10:16:43.886Z,45.07
2023-04-17T10:19:31.615Z,45.19
2023-04-17T10:22:31.328Z,44.99
2023-04-17T10:25:23.548Z,44.79
2023-04-17T10:27:58.309Z,45.23
2023-04-17T10:30:49.957Z,45.05
2023-04-17T10:33:30.956Z,45.15
2023-04-17T10:35:59.284Z,45.06
2023-04-17T10:38:35.812Z,45.26
2023-04-17T10:41:09.466Z,44.82
2023-04-17T10:43:43.526Z,45.59
2023-04-17T10:46:12.670Z,45.02
2023-04-17T10:48:49.581Z,44.98
2023-04-17T10:51:43.718Z,45.09
2023-04-17T10:54:15.639Z,45.17
2023-04-17T10:56:48.397Z,45.10
2023-04-17T10:59:17.394Z,45.33
2023-04-17T11:02:01.122Z,45.00
2023-04-17T11:04:31.588Z,45.17
2023-04-17T11:07:00.056Z,45.19
2023-04-17T11:09:29.489Z,44.98
2023-04-17T11:12:02.861Z,45.15
2023-04-17T11:14:32.380Z,45.00
2023-04-17T11:17:01.923Z,44.89
2023-04-17T11:19:30.433Z,44.92
2023-04-17T11:22:01.396Z,45.53
2023-04-17T11:24:30.696Z,43.27
2023-04-17T11:27:02.096Z,42.08
2023-04-17T11:29:30.774Z,40.78
2023-04-17T11:32:00.873Z,41.61
2023-04-17T11:34:29.379Z,40.61
2023-04-17T11:36:59.060Z,40.67
2023-04-17T11:39:29.986Z,40.15
2023-04-17T11:41:58.513Z,41.25
2023-04-17T11:44:29.218Z,40.28
2023-04-17T11:46:58.849Z,40.72
2023-04-17T11:49:27.785Z,40.65
2023-04-17T11:51:58.453Z,40.73
2023-04-17T11:54:27.912Z,41.13
2023-04-17T11:57:01.568Z,40.92
2023-04-17T11:59:36.005Z,40.56
2023-04-17T12:02:06.821Z,41.30
2023-04-17T12:04:35.592Z,41.12
2023-04-17T12:07:04.512Z,40.60
2023-04-17T12:09:33.041Z,40.82
2023-04-17T12:12:02.740Z,40.55
2023-04-17T12:14:31.506Z,41.20
2023-04-17T12:17:01.459Z,41.06
2023-04-17T12:19:31.954Z,40.83
2023-04-17T12:22:00.902Z,40.76
2023-04-17T12:24:29.338Z,41.07
2023-04-17T12:26:58.773Z,41.18
2023-04-17T12:29:40.641Z,40.84
2023-04-17T12:32:16.058Z,40.65
2023-04-17T12:34:44.512Z,41.08
2023-04-17T12:37:12.988Z,41.24
2023-04-17T12:39:41.388Z,40.88
2023-04-17T12:42:09.864Z,40.83
2023-04-17T12:44:39.750Z,40.95
2023-04-17T12:47:08.329Z,40.86
2023-04-17T12:49:38.140Z,41.65
2023-04-17T12:52:06.594Z,41.48
2023-04-17T12:54:35.001Z,41.79
2023-04-17T12:57:03.661Z,41.91
2023-04-17T12:59:32.074Z,41.86
2023-04-17T13:02:00.961Z,42.12
2023-04-17T13:04:29.652Z,42.13
2023-04-17T13:06:59.540Z,41.82
2023-04-17T13:09:28.174Z,41.82
2023-04-17T13:11:57.893Z,42.05
2023-04-17T13:14:26.332Z,42.13
2023-04-17T13:16:54.734Z,41.96
2023-04-17T13:19:23.332Z,41.64
2023-04-17T13:21:52.734Z,41.96
2023-04-17T13:24:22.537Z,42.09
2023-04-17T13:26:51.122Z,42.14
2023-04-17T13:29:20.003Z,42.13
2023-04-17T13:31:48.566Z,42.20
2023-04-17T13:34:16.995Z,42.26
2023-04-17T13:36:45.526Z,42.00
2023-04-17T13:39:14.016Z,42.11
2023-04-17T13:41:43.828Z,41.86
2023-04-17T13:44:12.655Z,41.99
2023-04-17T13:46:41.218Z,41.53
2023-04-17T13:49:09.660Z,41.44
2023-04-17T13:51:38.119Z,41.51
2023-04-17T13:54:06.756Z,41.52
2023-04-17T13:56:35.103Z,41.42
2023-04-17T13:59:05.729Z,41.52
2023-04-17T14:01:34.231Z,41.63
2023-04-17T14:04:02.861Z,41.66
2023-04-17T14:06:32.339Z,41.56
2023-04-17T14:09:00.756Z,41.71
2023-04-17T14:11:29.716Z,41.45
2023-04-17T14:13:58.329Z,41.83
2023-04-17T14:16:28.181Z,41.33
2023-04-17T14:18:59.331Z,41.29
2023-04-17T14:21:32.828Z,41.85
2023-04-17T14:24:01.198Z,41.83
2023-04-17T14:26:29.606Z,41.54
2023-04-17T14:28:58.139Z,41.71
2023-04-17T14:31:27.971Z,41.16
2023-04-17T14:33:56.425Z,41.48
2023-04-17T14:36:24.845Z,41.50
2023-04-17T14:38:53.969Z,40.92
2023-04-17T14:41:22.502Z,41.06
2023-04-17T14:43:50.957Z,41.28
2023-04-17T14:46:21.294Z,42.05
2023-04-17T14:48:55.547Z,41.33
2023-04-17T14:51:24.612Z,40.72
2023-04-17T14:53:53.464Z,40.76
2023-04-17T14:56:22.651Z,42.29
2023-04-17T14:58:51.419Z,42.06
2023-04-17T15:01:20.078Z,40.97
2023-04-17T15:03:49.155Z,41.71
2023-04-17T15:06:20.089Z,42.21
2023-04-17T15:08:48.601Z,41.64
2023-04-17T15:11:17.190Z,41.23
2023-04-17T15:13:45.568Z,40.87
2023-04-17T15:16:14.168Z,41.14
2023-04-17T15:18:42.622Z,41.67
2023-04-17T15:21:12.011Z,40.99
2023-04-17T15:23:41.787Z,42.22
2023-04-17T15:26:10.211Z,41.81
2023-04-17T15:28:38.774Z,41.79
2023-04-17T15:31:08.101Z,41.44
2023-04-17T15:33:36.526Z,41.58
2023-04-17T15:36:05.174Z,41.35
2023-04-17T15:38:33.676Z,42.04
2023-04-17T15:41:04.090Z,41.30
2023-04-17T15:43:32.526Z,41.63
2023-04-17T15:46:02.369Z,41.98
2023-04-17T15:48:31.411Z,41.88
2023-04-17T15:50:59.884Z,42.12
2023-04-17T15:53:28.307Z,41.67
2023-04-17T15:55:56.676Z,42.11
2023-04-17T15:58:26.500Z,41.73
2023-04-17T16:00:54.917Z,41.72
2023-04-17T16:03:23.440Z,41.43
2023-04-17T16:05:53.961Z,41.40
2023-04-17T16:08:22.603Z,41.64
2023-04-17T16:10:51.017Z,41.78
2023-04-17T16:13:19.469Z,41.47
2023-04-17T16:15:50.590Z,41.80
2023-04-17T16:18:19.183Z,41.52
2023-04-17T16:20:47.708Z,41.38
2023-04-17T16:23:16.190Z,41.66
2023-04-17T16:25:44.689Z,41.48
2023-04-17T16:28:13.153Z,41.10
2023-04-17T16:30:41.740Z,40.99
2023-04-17T16:33:11.623Z,41.50
2023-04-17T16:35:40.252Z,41.07
2023-04-17T16:38:08.689Z,41.19
2023-04-17T16:40:37.450Z,41.31
2023-04-17T16:43:05.833Z,41.43
2023-04-17T16:45:34.309Z,41.64
2023-04-17T16:48:02.782Z,41.48
2023-04-17T16:50:32.549Z,41.34
2023-04-17T16:53:00.956Z,41.51
2023-04-17T16:55:29.378Z,42.20
2023-04-17T16:58:00.109Z,41.55
2023-04-17T17:00:28.481Z,41.86
2023-04-17T17:02:56.909Z,42.20
2023-04-17T17:05:25.996Z,42.50
2023-04-17T17:07:55.735Z,42.37
2023-04-17T17:10:24.235Z,42.37
2023-04-17T17:12:52.770Z,42.58
2023-04-17T17:15:21.502Z,41.87
2023-04-17T17:17:50.102Z,41.18
2023-04-17T17:20:19.236Z,41.24
2023-04-17T17:22:47.633Z,42.02
2023-04-17T17:25:17.635Z,41.56
2023-04-17T17:27:46.309Z,42.18
2023-04-17T17:30:15.731Z,41.61
2023-04-17T17:32:44.195Z,42.99
2023-04-17T17:35:12.618Z,41.35
2023-04-17T17:37:42.385Z,42.03
2023-04-17T17:40:11.759Z,42.16
2023-04-17T17:42:41.541Z,41.81
2023-04-17T17:45:11.380Z,42.11
2023-04-17T17:47:40.312Z,41.93
2023-04-17T17:50:10.064Z,42.25
2023-04-17T17:52:38.510Z,41.65
2023-04-17T17:55:07.806Z,41.88
2023-04-17T17:57:47.918Z,41.62
2023-04-17T18:00:19.891Z,41.70
2023-04-17T18:02:48.481Z,42.83
2023-04-17T18:05:16.952Z,41.82
2023-04-17T18:07:47.689Z,42.44
2023-04-17T18:10:16.312Z,42.07
2023-04-17T18:12:44.722Z,42.29
2023-04-17T18:15:13.409Z,43.43
2023-04-17T18:17:43.323Z,42.03
2023-04-17T18:20:12.599Z,41.73
2023-04-17T18:22:41.024Z,41.61
2023-04-17T18:25:11.162Z,41.83
2023-04-17T18:27:39.589Z,41.81
2023-04-17T18:30:09.593Z,41.56
2023-04-17T18:32:38.215Z,41.82
2023-04-17T18:35:09.505Z,41.40
2023-04-17T18:37:37.900Z,41.46
2023-04-17T18:40:08.063Z,41.46
2023-04-17T18:42:36.501Z,41.73
2023-04-17T18:45:05.392Z,41.47
2023-04-17T18:47:33.878Z,41.43
2023-04-17T18:50:02.412Z,41.67
2023-04-17T18:52:32.343Z,41.73
2023-04-17T18:55:00.818Z,41.46
2023-04-17T18:57:29.235Z,41.67
2023-04-17T18:59:57.732Z,41.77
2023-04-17T19:02:26.296Z,41.35
2023-04-17T19:04:56.306Z,41.60
2023-04-17T19:07:25.062Z,41.22
2023-04-17T19:09:54.926Z,41.27
2023-04-17T19:12:23.429Z,41.16
2023-04-17T19:14:51.993Z,41.51
2023-04-17T19:17:20.492Z,41.33
2023-04-17T19:19:48.925Z,41.52
2023-04-17T19:22:18.484Z,41.20
2023-04-17T19:24:50.067Z,40.97
2023-04-17T19:27:20.047Z,41.28
2023-04-17T19:29:48.497Z,41.33
2023-04-17T19:32:17.417Z,41.26
2023-04-17T19:34:46.531Z,41.32
2023-04-17T19:37:15.035Z,41.02
2023-04-17T19:39:43.478Z,41.44
2023-04-17T19:42:12.314Z,41.38
2023-04-17T19:44:42.158Z,42.02
2023-04-17T19:47:10.559Z,41.31
2023-04-17T19:49:39.054Z,42.44
2023-04-17T19:52:07.510Z,41.52
2023-04-17T19:54:35.951Z,42.30
2023-04-17T19:57:04.768Z,41.88
2023-04-17T19:59:33.220Z,41.15
2023-04-17T20:02:03.105Z,41.55
2023-04-17T20:04:31.639Z,41.48
2023-04-17T20:07:00.053Z,41.75
2023-04-17T20:09:28.469Z,41.61
2023-04-17T20:11:56.855Z,41.71
2023-04-17T20:14:25.894Z,41.03
2023-04-17T20:16:54.304Z,40.99
2023-04-17T20:19:24.482Z,41.05
2023-04-17T20:21:52.931Z,40.81
2023-04-17T20:24:21.276Z,40.80
2023-04-17T20:26:49.690Z,41.02
2023-04-17T20:29:18.119Z,41.87
2023-04-17T20:31:46.518Z,40.95
2023-04-17T20:34:15.014Z,40.97
2023-04-17T20:36:45.422Z,40.92
2023-04-17T20:39:14.130Z,40.90
2023-04-17T20:41:42.754Z,40.58
2023-04-17T20:44:11.731Z,40.54
2023-04-17T20:46:40.445Z,40.39
2023-04-17T20:49:08.919Z,40.45
2023-04-17T20:51:37.400Z,40.73
2023-04-17T20:54:07.389Z,40.66
2023-04-17T20:56:35.900Z,40.68
2023-04-17T20:59:04.377Z,40.49
2023-04-17T21:01:32.864Z,40.46
2023-04-17T21:04:01.444Z,40.55
2023-04-17T21:06:29.908Z,40.42
2023-04-17T21:08:58.377Z,40.56
2023-04-17T21:11:28.170Z,40.43
2023-04-17T21:13:58.503Z,40.56
2023-04-17T21:16:27.031Z,40.64
2023-04-17T21:18:55.471Z,40.36
2023-04-17T21:21:23.910Z,40.44
2023-04-17T21:23:53.240Z,40.41
2023-04-17T21:26:22.021Z,42.35
2023-04-17T21:28:51.986Z,41.91
2023-04-17T21:31:20.400Z,42.08
2023-04-17T21:33:48.865Z,42.16
2023-04-17T21:36:19.387Z,42.25
2023-04-17T21:38:47.732Z,42.33
2023-04-17T21:41:16.108Z,42.29
2023-04-17T21:43:44.591Z,42.39
2023-04-17T21:46:14.541Z,42.47
2023-04-17T21:48:43.177Z,42.58
2023-04-17T21:51:11.591Z,42.51
2023-04-17T21:53:40.003Z,42.37
2023-04-17T21:56:09.647Z,42.68
2023-04-17T21:58:38.024Z,42.50
2023-04-17T22:01:06.702Z,42.56
2023-04-17T22:03:36.611Z,42.46
2023-04-17T22:06:06.032Z,42.40
2023-04-17T22:08:34.533Z,42.34
2023-04-17T22:11:02.993Z,42.35
2023-04-17T22:13:32.201Z,42.47
2023-04-17T22:16:00.677Z,42.36
2023-04-17T22:18:29.244Z,42.48
2023-04-17T22:20:58.994Z,42.57
2023-04-17T22:23:27.438Z,42.37
2023-04-17T22:25:55.873Z,42.72
2023-04-17T22:28:24.304Z,42.54
2023-04-17T22:30:52.914Z,42.74
2023-04-17T22:33:21.396Z,42.61
2023-04-17T22:35:50.572Z,42.47
2023-04-17T22:38:20.802Z,42.78
2023-04-17T22:44:49.107Z,42.64
2023-04-17T22:47:17.555Z,42.47
2023-04-17T22:49:45.979Z,42.72
2023-04-17T22:52:14.376Z,42.69
2023-04-17T22:54:44.174Z,42.78
2023-04-17T22:57:12.623Z,42.45
2023-04-17T22:59:42.238Z,42.51
2023-04-17T23:02:10.687Z,42.49
2023-04-17T23:04:39.253Z,42.70
2023-04-17T23:07:07.667Z,42.45
2023-04-17T23:10:21.058Z,42.59
2023-04-17T23:12:49.400Z,42.46
2023-04-17T23:15:17.746Z,42.52
2023-04-17T23:17:46.457Z,42.54
2023-04-17T23:20:15.015Z,42.41
2023-04-17T23:22:43.420Z,42.52
2023-04-17T23:25:12.046Z,42.50
2023-04-17T23:27:41.816Z,42.57
2023-04-17T23:30:11.067Z,42.70
2023-04-17T23:32:41.722Z,42.65
2023-04-17T23:35:10.890Z,42.75
2023-04-17T23:37:39.312Z,42.58
2023-04-17T23:40:09.747Z,42.84
2023-04-17T23:42:38.071Z,42.52
2023-04-17T23:45:09.542Z,42.50
2023-04-17T23:47:38.041Z,42.39
2023-04-17T23:50:07.587Z,42.70
2023-04-17T23:52:36.018Z,42.68
2023-04-17T23:55:04.882Z,42.65
2023-04-17T23:57:34.774Z,42.52
